»·PEaware :: HYDRA61 KSJT-KSKF

HYDRA61 :: KSJT-KSKF

FLIGHT INFORMATION

Flight Status: Arrived
Operator: Unknown
More flights by this operator :: More flights under this callsign
Pilot: 47th FTW Laughlin (28783)
Aircraft: BEECH AIRCRAFT T-6A TEXAN
(TEX2)
More flights by this aircraft type
Origin: KSJT San Angelo Regl/Mathis
United States
Destination: KSKF Lackland AFB Kelly Fld Annex
United States
More flights between these airports :: More routes between these airports
Route: KSJT JCT CSI2 KSKF
File this flight plan on PilotEdge
Remarks:
Altitude:
(Current/Filed)
15,000ft
Speed:
(Current/Filed)
250kts
Departed: 17-Aug-20 10:40 AM
Arrived: 17-Aug-20 11:28 AM
Distance/Time
Traveled:
154nm/0:48
Distance/Time
To Go:
Arrived

Flight Plot

Page will automatically refresh every two minutes.

Flight plan parsing failed; only flown route is shown


Map Options




Map Legend


Flown Route
Filed Route
Departure Airport
Arrival Airport
Navaid (VOR, NDB)
Fix

Horizontal Profiles

Position Reports

Time Latitude Longitude Heading Altitude Ground
Speed
17-Aug-20 10:28 31.365470 -100.501852 99 1908ft 0kts
17-Aug-20 10:29 31.365470 -100.501852 99 1908ft 0kts
17-Aug-20 10:30 31.365470 -100.501852 99 1908ft 0kts
17-Aug-20 10:31 31.365470 -100.501852 99 1908ft 0kts
17-Aug-20 10:32 31.365470 -100.501847 95 1908ft 0kts
17-Aug-20 10:33 31.365470 -100.501847 95 1908ft 0kts
17-Aug-20 10:34 31.366223 -100.500708 11 1908ft 0kts
17-Aug-20 10:35 31.367321 -100.500494 39 1908ft 0kts
17-Aug-20 10:36 31.367321 -100.500494 41 1908ft 0kts
17-Aug-20 10:37 31.367479 -100.500290 48 1908ft 8kts
17-Aug-20 10:37 31.367563 -100.499522 267 1908ft 12kts
17-Aug-20 10:39 31.367716 -100.497668 186 1908ft 25kts
17-Aug-20 10:40 31.341669 -100.502422 188 3186ft 161kts
17-Aug-20 10:41 31.295617 -100.502354 128 6276ft 167kts
17-Aug-20 10:41 31.280061 -100.466854 119 8875ft 178kts
17-Aug-20 10:43 31.277309 -100.459816 114 9338ft 180kts
17-Aug-20 10:43 31.275525 -100.449688 95 9920ft 187kts
17-Aug-20 10:44 31.275525 -100.449688 95 9920ft 187kts
17-Aug-20 10:45 31.368563 -100.497545 186 1908ft 0kts
17-Aug-20 10:46 31.344565 -100.497451 142 3799ft 135kts
17-Aug-20 10:47 31.321186 -100.458687 124 7351ft 166kts
17-Aug-20 10:48 31.294350 -100.412441 139 10628ft 188kts
17-Aug-20 10:49 31.250383 -100.382748 151 14134ft 194kts
17-Aug-20 10:50 31.193773 -100.347634 152 14765ft 256kts
17-Aug-20 10:51 31.130031 -100.306577 151 14808ft 263kts
17-Aug-20 10:52 31.064689 -100.262900 149 14768ft 275kts
17-Aug-20 10:53 30.997928 -100.218794 152 14732ft 276kts
17-Aug-20 10:54 30.933451 -100.170373 136 14784ft 275kts
17-Aug-20 10:55 30.878915 -100.106656 132 14748ft 280kts
17-Aug-20 10:56 30.825938 -100.040962 133 14773ft 277kts
17-Aug-20 10:57 30.767352 -99.982654 142 14910ft 272kts
17-Aug-20 10:58 30.707499 -99.925760 138 14705ft 278kts
17-Aug-20 10:59 30.649036 -99.867040 140 14689ft 276kts
17-Aug-20 11:00 30.590249 -99.808938 139 14468ft 284kts
17-Aug-20 11:01 30.530094 -99.753247 144 14681ft 278kts
17-Aug-20 11:02 30.469552 -99.697293 141 14686ft 278kts
17-Aug-20 11:03 30.410630 -99.640788 141 14782ft 274kts
17-Aug-20 11:04 30.350404 -99.585694 142 14811ft 274kts
17-Aug-20 11:05 30.291762 -99.528725 139 14861ft 273kts
17-Aug-20 11:06 30.234536 -99.469819 140 14811ft 278kts
17-Aug-20 11:07 30.172306 -99.416317 145 14714ft 279kts
17-Aug-20 11:08 30.107719 -99.366744 148 14790ft 279kts
17-Aug-20 11:09 30.040940 -99.320599 148 14820ft 279kts
17-Aug-20 11:10 29.980993 -99.264389 140 14783ft 279kts
17-Aug-20 11:11 29.919396 -99.211634 138 14414ft 278kts
17-Aug-20 11:12 29.890538 -99.128950 110 12505ft 278kts
17-Aug-20 11:13 29.864230 -99.045590 115 9751ft 272kts
17-Aug-20 11:14 29.835540 -98.968550 116 9806ft 249kts
17-Aug-20 11:15 29.808371 -98.898320 114 9685ft 244kts
17-Aug-20 11:16 29.764684 -98.841785 138 6724ft 238kts
17-Aug-20 11:17 29.723972 -98.790789 136 4503ft 202kts
17-Aug-20 11:18 29.684897 -98.744186 145 3683ft 202kts
17-Aug-20 11:19 29.640762 -98.706429 146 3702ft 195kts
17-Aug-20 11:20 29.597850 -98.671293 145 3573ft 197kts
17-Aug-20 11:21 29.552013 -98.642361 164 2785ft 171kts
17-Aug-20 11:22 29.510228 -98.628456 160 2920ft 151kts
17-Aug-20 11:23 29.477781 -98.616024 163 2375ft 101kts
17-Aug-20 11:24 29.451084 -98.605750 161 1850ft 101kts
17-Aug-20 11:25 29.424648 -98.595959 162 1254ft 97kts
17-Aug-20 11:26 29.400602 -98.587202 160 762ft 84kts
17-Aug-20 11:27 29.386584 -98.582010 162 692ft 28kts
17-Aug-20 11:28 29.384051 -98.583595 256 692ft 14kts
17-Aug-20 11:29 29.381192 -98.587341 250 692ft 16kts
17-Aug-20 11:30 29.379895 -98.590613 157 692ft 0kts
17-Aug-20 11:31 29.379895 -98.590613 157 692ft 0kts
17-Aug-20 11:32 29.379895 -98.590613 157 692ft 0kts
17-Aug-20 11:33 29.379895 -98.590613 157 692ft 0kts
17-Aug-20 11:34 29.379895 -98.590613 157 692ft 0kts
17-Aug-20 11:35 29.379895 -98.590613 157 692ft 0kts
17-Aug-20 11:36 29.379895 -98.590613 157 692ft 0kts
17-Aug-20 11:37 29.379895 -98.590613 157 692ft 0kts
17-Aug-20 11:38 29.379895 -98.590613 157 692ft 0kts
17-Aug-20 11:39 29.379895 -98.590613 157 692ft 0kts
17-Aug-20 11:40 29.379895 -98.590613 157 692ft 0kts
17-Aug-20 11:41 29.379895 -98.590613 157 692ft 0kts
17-Aug-20 11:42 29.379895 -98.590613 157 692ft 0kts

Navigation Log

Ident Type
Flight plan parsing failed, navigation log unavailable